Herbert C Jackson — WL3972 — position and weather

sailwx.info

Track history (hours):
 
Tides and Currents Weather Stations Pressure Air Temp Water Temp Dewpoint Dewpoint Depression Visibility Wind Speed Wind Dir Waves Ship Positions

Herbert C Jackson

Owner: THE INTERLAKE STEAMSHIP COMPANY, Middleburg Heights, OH. More information available from US FCC via Universal Licensing System and Coast Guard Vessel Documentation Center.

Last reported at 2014-Nov-27 01:00 UTC. Time now 2014-Nov-27 02:50 UTC.
Position N 46°42' W 086°30'.

Length 239 m; draft 6.6 m.

Type: Cargo ship. MMSI: 366904930.

Wind from 210 at 8 knots

Barometer 1020.7 mb
Air temperature -1.7 ° C
Water temperature 4.0 ° C

Date/timePositionNaut miles runAvg speedWind from/ knotsBaromVisibWave heightAir tempDewpointWater temp
2014-Nov-27 01:00N 46°42' W 086°30'1212.3 210 / 81020.7 -1.7 4.0
2014-Nov-27 00:00N 46°42' W 086°48'1413.7 330 / 111021.0 -1.7 4.1
2014-Nov-26 23:00N 46°36' W 087°06'1212.4 330 / 111021.0 -2.0 4.0
2014-Nov-26 22:00N 46°36' W 087°24'0 0.0 260 / 61021.3 -2.5 2.9
2014-Nov-26 21:00N 46°36' W 087°24'0 0.0 230 / 21021.0 -2.2 1.9
2014-Nov-26 20:00N 46°36' W 087°24'0 0.0 270 / 41020.7 -1.9 1.4
2014-Nov-26 19:00N 46°36' W 087°24'0 0.0 170 / 21020.7 -1.7 1.4
2014-Nov-26 18:00N 46°36' W 087°24'0 0.0 190 / 21020.7 -1.4 1.4
2014-Nov-26 17:00N 46°36' W 087°24'0 0.0 210 / 31021.0 -3.5 1.8
2014-Nov-26 16:00N 46°36' W 087°24'0 0.0 160 / 31021.3 -4.7 1.5
2014-Nov-26 15:00N 46°36' W 087°24'0 0.0 190 / 21021.3 -6.4 1.4
2014-Nov-26 00:00N 46°36' W 087°24'0 0.0 190 / 31018.3 -7.1 3.1
2014-Nov-25 23:00N 46°36' W 087°24'4 4.1 270 / 31017.6 -5.5 2.8
2014-Nov-25 22:00N 46°36' W 087°18'1212.4 270 / 121015.6 -3.9 4.1
2014-Nov-25 21:00N 46°36' W 087°00'1010.2 270 / 171014.6 -3.7 4.6
2014-Nov-25 20:00N 46°42' W 086°48'1212.3 300 / 221012.5 -2.5 4.3
2014-Nov-25 19:00N 46°42' W 086°30'8 8.2 300 / 201011.5 5.4 -2.7 4.4
2014-Nov-25 18:00N 46°42' W 086°18'8 8.2 290 / 221010.5 -2.7 4.2
2014-Nov-25 17:00N 46°42' W 086°06'1413.7 310 / 201009.5 -2.4 4.1
2014-Nov-25 16:00N 46°48' W 085°48'1212.3 340 / 171009.5 -3.1 4.2
2014-Nov-25 15:00N 46°48' W 085°30'1212.3 330 / 171007.1 -3.3 4.2
2014-Nov-25 14:00N 46°48' W 085°12'1212.3 010 / 161006.8 -3.6 4.1
2014-Nov-25 13:00N 46°48' W 084°54'1312.7 010 / 211004.1 -4.4 4.2
2014-Nov-25 12:00N 46°36' W 084°48'1010.2 350 / 241002.4 -4.4 5.1
2014-Nov-25 11:00N 46°30' W 084°36'0 0.0 1001.7 -3.8 4.6
2014-Nov-25 09:00N 46°30' W 084°36'0 0.0 1000.3 -3.3 3.6
2014-Nov-25 08:00N 46°30' W 084°36'0 0.0 340 / 24999.0 -2.7 3.7
2014-Nov-25 07:00N 46°30' W 084°36'0 0.0 340 / 16998.0 -2.5 3.7
2014-Nov-25 06:00N 46°30' W 084°36'0 0.0 340 / 19997.0 -2.4 3.7
2014-Nov-25 05:00N 46°30' W 084°36'0 0.0 340 / 20994.6 -1.6 3.8
2014-Nov-25 04:00N 46°30' W 084°36'0 0.0 350 / 16993.6 -1.2 4.1
2014-Nov-25 03:00N 46°30' W 084°36'0 0.0 340 / 22992.2 -0.1 3.9
2014-Nov-25 02:00N 46°30' W 084°36'4 4.1 340 / 16990.5 1.3 3.9
2014-Nov-25 01:00N 46°30' W 084°30'4 4.1 330 / 15989.2 2.8 4.7
2014-Nov-25 00:00N 46°30' W 084°24'4 4.1 280 / 8987.5 3.0 3.4
2014-Nov-24 23:00N 46°30' W 084°18'6 6.0 270 / 13986.6 3.4 3.4
2014-Nov-24 22:00N 46°24' W 084°18'7 7.3 270 / 15985.2 4.0 3.7
2014-Nov-24 21:00N 46°18' W 084°12'7 7.3 270 / 19983.5 4.8 3.7
2014-Nov-24 20:00N 46°12' W 084°06'7 7.3 250 / 12983.2 4.7 3.8
2014-Nov-24 19:00N 46°06' W 084°00'1312.7 240 / 12981.8 5.9 1.9
2014-Nov-24 18:00N 45°54' W 083°54'1413.9 250 / 19980.8 4.4 4.1
2014-Nov-24 17:00N 45°48' W 083°36'1312.5 260 / 24979.8 5.9 4.5
2014-Nov-24 16:00N 45°48' W 083°18'7 0.5 220 / 19979.8 7.0 4.2
2014-Nov-24 01:00N 45°54' W 083°12'0 0.0 150 / 151001.1 6.3 5.2
2014-Nov-24 00:00N 45°54' W 083°12'6 6.0 140 / 261001.1 6.5 5.2
2014-Nov-23 23:00N 45°48' W 083°12'3015.0 160 / 201002.8 6.2 4.5
2014-Nov-23 21:00N 45°18' W 083°12'1312.7 160 / 181004.2 6.8 4.9
2014-Nov-23 20:00N 45°06' W 083°06'1312.7 170 / 191005.2 6.7 4.7
2014-Nov-23 19:00N 44°54' W 083°00'1312.7 170 / 171006.2 7.3 5.2
2014-Nov-23 18:00N 44°42' W 082°54'1312.7 160 / 211007.2 7.3 5.7
2014-Nov-23 17:00N 44°30' W 082°48'1312.7 160 / 171008.6 7.5 5.6
2014-Nov-23 16:00N 44°18' W 082°42'1918.5 170 / 171011.3 7.0 5.5
2014-Nov-23 15:00N 44°00' W 082°36'1312.8 180 / 151011.6 6.5 5.5
2014-Nov-23 14:00N 43°48' W 082°30'1212.0 180 / 191011.6 6.4 4.6
2014-Nov-23 13:00N 43°36' W 082°30'1212.0 180 / 171012.0 7.3 5.6
2014-Nov-23 12:00N 43°24' W 082°30'1312.8 170 / 131013.0 6.9 5.1
2014-Nov-23 11:00N 43°12' W 082°24'1212.0 210 / 111013.0 6.8 5.5
2014-Nov-23 10:00N 43°00' W 082°24'1312.8 210 / 91013.0 7.8 4.7
2014-Nov-23 09:00N 42°48' W 082°30'6 6.0 200 / 101013.3 7.9 4.7
2014-Nov-23 08:00N 42°42' W 082°30'1312.8 220 / 101014.3 8.5 4.5
2014-Nov-23 07:00N 42°30' W 082°36'1110.7 200 / 101014.2 6.3 4.4
2014-Nov-23 06:00N 42°24' W 082°48'1110.7 200 / 111014.2 5.3 1.9
2014-Nov-23 05:00N 42°18' W 083°00'4 4.4 200 / 61014.2 8.3 0.9
2014-Nov-23 04:00N 42°18' W 083°06'0 0.0 170 / 51014.2 7.7 1.5
2014-Nov-23 03:00N 42°18' W 083°06'4 4.4 220 / 101014.2 9.8 3.9
2014-Nov-23 02:00N 42°18' W 083°12'0 0.0 190 / 71013.8 9.3 5.0
2014-Nov-23 01:00N 42°18' W 083°12'0 0.0 180 / 61014.5 8.9 5.0
2014-Nov-23 00:00N 42°18' W 083°12'0 0.0 190 / 61014.5 8.8 5.3
2014-Nov-22 23:00N 42°18' W 083°12'0 0.0 200 / 61014.8 8.7 5.4
2014-Nov-22 22:00N 42°18' W 083°12'0 0.0 200 / 81014.8 8.6 5.0
2014-Nov-22 21:00N 42°18' W 083°12'0 0.0 180 / 71014.8 8.3 4.4
2014-Nov-22 20:00N 42°18' W 083°12'0 0.0 180 / 61014.8 7.2 4.5
2014-Nov-22 19:00N 42°18' W 083°12'0 0.0 180 / 81016.2 6.6 4.5
2014-Nov-22 18:00N 42°18' W 083°12'0 0.0 170 / 61016.5 5.2 4.4
2014-Nov-22 17:00N 42°18' W 083°12'0 0.0 160 / 61017.5 3.5 4.4
2014-Nov-22 16:00N 42°18' W 083°12'4 4.4 200 / 91018.9 1.7 3.6
2014-Nov-22 15:00N 42°18' W 083°06'0 0.0 110 / 21019.2 0.5 2.8
2014-Nov-22 14:00N 42°18' W 083°06'1110.7 030 / 61019.6 -0.3 1.2
2014-Nov-22 13:00N 42°24' W 082°54'1110.7 240 / 101019.6 -0.6 1.4
2014-Nov-22 12:00N 42°30' W 082°42'1110.7 180 / 231019.9 -0.7 4.1
2014-Nov-22 11:00N 42°36' W 082°30'6 6.0 190 / 161021.8 -0.6 4.5
2014-Nov-22 10:00N 42°42' W 082°30'1212.0 180 / 211021.1 -0.7 4.7
2014-Nov-22 09:00N 42°54' W 082°30'7 7.4 190 / 221022.1 -1.7 4.8
2014-Nov-22 08:00N 43°00' W 082°24'1212.0 180 / 241022.1 -2.2 5.2
2014-Nov-22 07:00N 43°12' W 082°24'1212.0 200 / 281021.5 -2.3 5.6
2014-Nov-22 06:00N 43°24' W 082°24'1312.8 200 / 281022.5 -2.8 5.7
2014-Nov-22 05:00N 43°36' W 082°30'1212.0 200 / 311022.1 -2.9 5.7
2014-Nov-22 04:00N 43°48' W 082°30'1212.0 200 / 301022.8 -3.3 4.8
2014-Nov-22 03:00N 44°00' W 082°30'7 7.4 200 / 261023.8 -2.8 5.5
2014-Nov-22 02:00N 44°06' W 082°36'1312.7 210 / 261024.5 -3.0 5.5
2014-Nov-22 01:00N 44°18' W 082°42'6 6.0 210 / 301024.2 -3.2 5.4
2014-Nov-22 00:00N 44°24' W 082°42'5112.7 200 / 281024.2 -3.2 5.6
2014-Nov-21 20:00N 45°12' W 083°06'7 7.3 220 / 171025.2 -3.3 5.2
2014-Nov-21 19:00N 45°18' W 083°12'1514.7 230 / 141025.5 -3.5 5.3
2014-Nov-21 18:00N 45°30' W 083°24'1010.3 250 / 141025.9 -3.8 5.2
2014-Nov-21 17:00N 45°36' W 083°36'1312.7 250 / 181025.9 -3.8 4.5
2014-Nov-21 16:00N 45°48' W 083°42'1514.6 290 / 141026.5 -4.1 4.2
2014-Nov-21 15:00N 46°00' W 083°54'7 7.3 260 / 121025.5 -5.1 1.9
2014-Nov-21 14:00N 46°06' W 084°00'1010.3 280 / 61025.2 -8.8 1.4
2014-Nov-21 13:00N 46°12' W 084°12'1212.0 340 / 21024.5 -11.7 2.2
2014-Nov-21 12:00N 46°24' W 084°12'7 7.3 250 / 71023.5 -10.4 2.9
2014-Nov-21 11:00N 46°30' W 084°18'4 4.1 110 / 51022.8 -10.2 3.1
2014-Nov-21 10:00N 46°30' W 084°24'0 0.0 080 / 21022.0 -10.6 3.0
2014-Nov-21 09:00N 46°30' W 084°24'8 8.3 250 / 151020.7 -7.9 3.2
2014-Nov-21 08:00N 46°30' W 084°36'1514.6 230 / 191020.0 -8.1 4.9
2014-Nov-21 07:00N 46°42' W 084°48'1010.2 240 / 161019.0 -6.2 5.3
2014-Nov-21 06:00N 46°48' W 085°00'1212.3 300 / 201019.0 -6.3 3.6
2014-Nov-21 05:00N 46°48' W 085°18'1212.3 300 / 181018.3 -6.0 4.4
2014-Nov-21 04:00N 46°48' W 085°36'1212.3 290 / 191017.6 -6.3 4.9
2014-Nov-21 03:00N 46°48' W 085°54'1616.4 300 / 241017.3 -7.1 5.2
2014-Nov-21 02:00N 46°48' W 086°18'1212.3 310 / 171017.6 -7.7 4.7
2014-Nov-21 01:00N 46°48' W 086°36'2512.3 300 / 211017.3 -8.5 4.5
2014-Nov-20 23:00N 46°48' W 087°12'1212.3 280 / 231016.3 -8.9 4.2
2014-Nov-20 22:00N 46°48' W 087°30'1312.7 260 / 251014.6 -9.7 4.3
2014-Nov-20 21:00N 46°36' W 087°24'0 0.0 270 / 231013.5 -8.3 4.1
2014-Nov-20 20:00N 46°36' W 087°24'0 0.0 270 / 121013.5 -8.2 3.1
2014-Nov-20 19:00N 46°36' W 087°24'0 0.0 310 / 201012.2 -8.1 3.3
2014-Nov-20 18:00N 46°36' W 087°24'0 0.0 300 / 211011.2 -8.2 3.3
2014-Nov-20 17:00N 46°36' W 087°24'0 0.0 300 / 161010.8 -7.9 3.4
2014-Nov-20 16:00N 46°36' W 087°24'0 0.0 300 / 191010.5 -7.9 3.4
2014-Nov-20 15:00N 46°36' W 087°24'0 0.0 270 / 181009.8 -8.1 3.3
2014-Nov-20 14:00N 46°36' W 087°24'0 0.0 270 / 141009.1 -8.6 3.3
2014-Nov-20 13:00N 46°36' W 087°24'0 0.0 260 / 141008.1 -9.4 3.4
2014-Nov-20 12:00N 46°36' W 087°24'0 0.0 260 / 131007.8 -9.6 3.3
2014-Nov-20 11:00N 46°36' W 087°24'0 0.0 250 / 121007.1 -9.7 3.4
2014-Nov-20 10:00N 46°36' W 087°24'0 0.0 250 / 141006.4 -9.4 3.5
2014-Nov-20 09:00N 46°36' W 087°24'0 0.0 270 / 121006.4 -8.3 3.6
2014-Nov-20 08:00N 46°36' W 087°24'0 0.0 280 / 151005.8 -7.7 3.5
2014-Nov-20 07:00N 46°36' W 087°24'0 0.0 280 / 171005.1 -7.2 3.5
2014-Nov-20 06:00N 46°36' W 087°24'0 0.0 250 / 141004.7 -7.4 3.5
2014-Nov-20 05:00N 46°36' W 087°24'0 0.0 260 / 131004.7 -7.2 3.5
2014-Nov-20 04:00N 46°36' W 087°24'0 0.0 260 / 151004.1 -6.3 3.5
2014-Nov-20 03:00N 46°36' W 087°24'0 0.0 290 / 161003.7 -6.4 3.1
2014-Nov-20 02:00N 46°36' W 087°24'0 0.0 320 / 41003.4 -5.6 2.8
2014-Nov-20 01:00N 46°36' W 087°24'0 0.0 320 / 31003.0 -6.2 3.0
2014-Nov-20 00:00N 46°36' W 087°24'0 0.0 330 / 41002.4 -5.8 2.8
2014-Nov-19 23:00N 46°36' W 087°24'0 0.0 290 / 21002.4 -5.9 3.2
2014-Nov-19 22:00N 46°36' W 087°24'0 0.0 300 / 21002.4 -5.8 3.2
2014-Nov-19 21:00N 46°36' W 087°24'0 0.0 300 / 21002.4 -6.4 3.1
2014-Nov-19 20:00N 46°36' W 087°24'0 0.0 270 / 71002.0 -6.8 3.2
2014-Nov-19 19:00N 46°36' W 087°24'0 0.0 270 / 51002.4 -7.1 3.0
2014-Nov-19 18:00N 46°36' W 087°24'1212.4 250 / 101003.0 -7.3 3.8
2014-Nov-19 17:00N 46°36' W 087°06'1212.4 210 / 181003.4 -7.9 4.5
2014-Nov-19 16:00N 46°36' W 086°48'1413.7 210 / 201004.7 -8.0 4.3
2014-Nov-19 15:00N 46°42' W 086°30'1212.3 200 / 241005.1 -7.9 4.8
2014-Nov-19 14:00N 46°42' W 086°12'8 8.2 210 / 241005.8 -9.0 4.8
2014-Nov-19 13:00N 46°42' W 086°00'1212.3 200 / 281006.4 -10.3 4.6
2014-Nov-19 12:00N 46°42' W 085°42'1413.7 220 / 281006.4 -9.8 4.9
2014-Nov-19 11:00N 46°48' W 085°24'1212.3 210 / 291006.1 4.8
2014-Nov-19 10:00N 46°48' W 085°06'1010.2 200 / 231007.8 -10.9 3.9
2014-Nov-19 09:00N 46°42' W 084°54'1010.2 230 / 301008.1 -9.9 5.7
2014-Nov-19 08:00N 46°36' W 084°42'1010.2 230 / 351008.1 -8.8 5.9
2014-Nov-19 07:00N 46°30' W 084°30'4 4.1 220 / 261008.5 -10.7 3.9
2014-Nov-19 06:00N 46°30' W 084°24'4 4.1 210 / 71011.2 -11.5 3.9
2014-Nov-19 05:00N 46°30' W 084°18'7 7.3 230 / 121010.3 -10.6 3.6
2014-Nov-19 04:00N 46°24' W 084°12'7 7.3 240 / 221009.9 -9.7 3.7
2014-Nov-19 03:00N 46°18' W 084°06'6 6.0 260 / 191009.6 -8.5 3.4
2014-Nov-19 02:00N 46°12' W 084°06'1514.6 260 / 261008.6 -7.7 2.3
2014-Nov-19 01:00N 46°00' W 083°54'6 6.0 260 / 271007.6 -6.3 2.6
2014-Nov-19 00:00N 45°54' W 083°54'1212.0 300 / 361007.6 -4.0 4.9
2014-Nov-18 23:00N 45°42' W 083°54'1312.7 280 / 381006.6 -3.1 5.6
2014-Nov-18 22:00N 45°30' W 083°48'1414.0 290 / 421004.2 -4.3 5.8
2014-Nov-18 21:00N 45°24' W 083°30'1010.3 270 / 411002.8 -2.8 6.0
2014-Nov-18 20:00N 45°18' W 083°18'1514.7 260 / 421001.5 5.4 2.0-3.7 5.8
2014-Nov-18 19:00N 45°06' W 083°06'6 6.0 270 / 351002.2 -3.9 5.8
2014-Nov-18 18:00N 45°00' W 083°06'1818.0 270 / 411001.8 -3.1 6.0
2014-Nov-18 17:00N 44°42' W 083°06'1312.7 260 / 331002.8 -4.2 6.1
2014-Nov-18 16:00N 44°30' W 083°12'1212.0 250 / 381003.2 -4.2 6.2
2014-Nov-18 15:00N 44°18' W 083°12'1010.5 250 / 411003.5 -5.7 6.3
2014-Nov-18 14:00N 44°12' W 083°00'6510.9 250 / 471001.1 -5.8 6.5
2014-Nov-18 08:00N 43°12' W 082°24'1212.0 240 / 271006.2 -8.5 6.5
2014-Nov-18 07:00N 43°00' W 082°24'1312.8 240 / 151006.9 -8.3 6.1
2014-Nov-18 06:00N 42°48' W 082°30'6 6.0 220 / 141007.2 -8.1 6.2
2014-Nov-18 05:00N 42°42' W 082°30'1312.8 260 / 141007.9 -7.0 6.0
2014-Nov-18 04:00N 42°30' W 082°36'1110.7 250 / 231008.4 -6.4 6.0
2014-Nov-18 03:00N 42°24' W 082°48'1110.7 250 / 241008.7 -6.4 4.0
2014-Nov-18 02:00N 42°18' W 083°00'7 7.5 250 / 201008.7 -6.1 4.1
2014-Nov-18 01:00N 42°12' W 083°06'6 6.0 240 / 181008.7 -5.7 4.3
2014-Nov-18 00:00N 42°06' W 083°06'1212.0 230 / 181009.0 -5.4 4.0
2014-Nov-17 23:00N 41°54' W 083°06'9 8.9 250 / 371007.6 -4.5 4.7
2014-Nov-17 22:00N 41°54' W 082°54'1313.4 240 / 391003.9 -3.2 4.9
2014-Nov-17 21:00N 41°54' W 082°36'1110.8 240 / 511003.2 -2.5 5.9
2014-Nov-17 20:00N 41°48' W 082°24'1110.8 240 / 331001.9 -1.3 6.4
2014-Nov-17 19:00N 41°54' W 082°12'1514.7 250 / 311000.2 0.2 8.6
2014-Nov-17 18:00N 42°00' W 081°54'9 8.9 250 / 32999.5 1.2 8.8
2014-Nov-17 17:00N 42°00' W 081°42'1514.7 260 / 231000.5 0.8 8.8
2014-Nov-17 16:00N 42°06' W 081°24'5213.0 290 / 221002.2 0.6 8.8
2014-Nov-17 12:00N 42°24' W 080°18'613.1 180 / 151005.6 3.1 8.5
2014-Nov-17 11:33N 42°27' W 080°11'5 8.8
2014-Nov-17 11:00N 42°30' W 080°06'1514.6 180 / 131005.9 3.1 8.8
2014-Nov-17 10:00N 42°36' W 079°48'1514.5 160 / 151006.9 2.9 8.8
2014-Nov-17 09:00N 42°42' W 079°30'9 8.8 170 / 181008.0 2.9 8.7
2014-Nov-17 08:00N 42°42' W 079°18'1514.5 170 / 191009.6 2.5 8.5
2014-Nov-17 07:00N 42°48' W 079°00'7 7.4 180 / 211010.7 2.6 7.5
2014-Nov-17 06:00N 42°54' W 078°54'0 0.0 150 / 101012.0 1.6 5.3
2014-Nov-17 05:00N 42°54' W 078°54'0 0.0 200 / 101013.0 2.0 5.0
2014-Nov-17 04:00N 42°54' W 078°54'0 0.0 200 / 61014.0 2.1 5.2
2014-Nov-17 03:00N 42°54' W 078°54'0 0.0 220 / 81014.7 3.1 5.2
2014-Nov-17 02:00N 42°54' W 078°54'0 0.0 230 / 51015.4 2.9 5.1
2014-Nov-17 01:00N 42°54' W 078°54'   220 / 81016.4 2.5 5.0
Track history (hours):
 
Tides and Currents Weather Stations Pressure Air Temp Water Temp Dewpoint Dewpoint Depression Visibility Wind Speed Wind Dir Waves Ship Positions

Herbert C Jackson

Owner: THE INTERLAKE STEAMSHIP COMPANY, Middleburg Heights, OH. More information available from US FCC via Universal Licensing System and Coast Guard Vessel Documentation Center.

Last reported at 2014-Nov-27 01:00 UTC. Time now 2014-Nov-27 02:50 UTC.
Position N 46°42' W 086°30'.

Length 239 m; draft 6.6 m.

Type: Cargo ship. MMSI: 366904930.

Wind from 210 at 8 knots

Barometer 1020.7 mb
Air temperature -1.7 ° C
Water temperature 4.0 ° C

Date/timePositionNaut miles runAvg speedWind from/ knotsBaromVisibWave heightAir tempDewpointWater temp
2014-Nov-27 01:00N 46°42' W 086°30'1212.3 210 / 81020.7 -1.7 4.0
2014-Nov-27 00:00N 46°42' W 086°48'1413.7 330 / 111021.0 -1.7 4.1
2014-Nov-26 23:00N 46°36' W 087°06'1212.4 330 / 111021.0 -2.0 4.0
2014-Nov-26 22:00N 46°36' W 087°24'0 0.0 260 / 61021.3 -2.5 2.9
2014-Nov-26 21:00N 46°36' W 087°24'0 0.0 230 / 21021.0 -2.2 1.9
2014-Nov-26 20:00N 46°36' W 087°24'0 0.0 270 / 41020.7 -1.9 1.4
2014-Nov-26 19:00N 46°36' W 087°24'0 0.0 170 / 21020.7 -1.7 1.4
2014-Nov-26 18:00N 46°36' W 087°24'0 0.0 190 / 21020.7 -1.4 1.4
2014-Nov-26 17:00N 46°36' W 087°24'0 0.0 210 / 31021.0 -3.5 1.8
2014-Nov-26 16:00N 46°36' W 087°24'0 0.0 160 / 31021.3 -4.7 1.5
2014-Nov-26 15:00N 46°36' W 087°24'0 0.0 190 / 21021.3 -6.4 1.4
2014-Nov-26 00:00N 46°36' W 087°24'0 0.0 190 / 31018.3 -7.1 3.1
2014-Nov-25 23:00N 46°36' W 087°24'4 4.1 270 / 31017.6 -5.5 2.8
2014-Nov-25 22:00N 46°36' W 087°18'1212.4 270 / 121015.6 -3.9 4.1
2014-Nov-25 21:00N 46°36' W 087°00'1010.2 270 / 171014.6 -3.7 4.6
2014-Nov-25 20:00N 46°42' W 086°48'1212.3 300 / 221012.5 -2.5 4.3
2014-Nov-25 19:00N 46°42' W 086°30'8 8.2 300 / 201011.5 5.4 -2.7 4.4
2014-Nov-25 18:00N 46°42' W 086°18'8 8.2 290 / 221010.5 -2.7 4.2
2014-Nov-25 17:00N 46°42' W 086°06'1413.7 310 / 201009.5 -2.4 4.1
2014-Nov-25 16:00N 46°48' W 085°48'1212.3 340 / 171009.5 -3.1 4.2
2014-Nov-25 15:00N 46°48' W 085°30'1212.3 330 / 171007.1 -3.3 4.2
2014-Nov-25 14:00N 46°48' W 085°12'1212.3 010 / 161006.8 -3.6 4.1
2014-Nov-25 13:00N 46°48' W 084°54'1312.7 010 / 211004.1 -4.4 4.2
2014-Nov-25 12:00N 46°36' W 084°48'1010.2 350 / 241002.4 -4.4 5.1
2014-Nov-25 11:00N 46°30' W 084°36'0 0.0 1001.7 -3.8 4.6
2014-Nov-25 09:00N 46°30' W 084°36'0 0.0 1000.3 -3.3 3.6
2014-Nov-25 08:00N 46°30' W 084°36'0 0.0 340 / 24999.0 -2.7 3.7
2014-Nov-25 07:00N 46°30' W 084°36'0 0.0 340 / 16998.0 -2.5 3.7
2014-Nov-25 06:00N 46°30' W 084°36'0 0.0 340 / 19997.0 -2.4 3.7
2014-Nov-25 05:00N 46°30' W 084°36'0 0.0 340 / 20994.6 -1.6 3.8
2014-Nov-25 04:00N 46°30' W 084°36'0 0.0 350 / 16993.6 -1.2 4.1
2014-Nov-25 03:00N 46°30' W 084°36'0 0.0 340 / 22992.2 -0.1 3.9
2014-Nov-25 02:00N 46°30' W 084°36'4 4.1 340 / 16990.5 1.3 3.9
2014-Nov-25 01:00N 46°30' W 084°30'4 4.1 330 / 15989.2 2.8 4.7
2014-Nov-25 00:00N 46°30' W 084°24'4 4.1 280 / 8987.5 3.0 3.4
2014-Nov-24 23:00N 46°30' W 084°18'6 6.0 270 / 13986.6 3.4 3.4
2014-Nov-24 22:00N 46°24' W 084°18'7 7.3 270 / 15985.2 4.0 3.7
2014-Nov-24 21:00N 46°18' W 084°12'7 7.3 270 / 19983.5 4.8 3.7
2014-Nov-24 20:00N 46°12' W 084°06'7 7.3 250 / 12983.2 4.7 3.8
2014-Nov-24 19:00N 46°06' W 084°00'1312.7 240 / 12981.8 5.9 1.9
2014-Nov-24 18:00N 45°54' W 083°54'1413.9 250 / 19980.8 4.4 4.1
2014-Nov-24 17:00N 45°48' W 083°36'1312.5 260 / 24979.8 5.9 4.5
2014-Nov-24 16:00N 45°48' W 083°18'7 0.5 220 / 19979.8 7.0 4.2
2014-Nov-24 01:00N 45°54' W 083°12'0 0.0 150 / 151001.1 6.3 5.2
2014-Nov-24 00:00N 45°54' W 083°12'6 6.0 140 / 261001.1 6.5 5.2
2014-Nov-23 23:00N 45°48' W 083°12'3015.0 160 / 201002.8 6.2 4.5
2014-Nov-23 21:00N 45°18' W 083°12'1312.7 160 / 181004.2 6.8 4.9
2014-Nov-23 20:00N 45°06' W 083°06'1312.7 170 / 191005.2 6.7 4.7
2014-Nov-23 19:00N 44°54' W 083°00'1312.7 170 / 171006.2 7.3 5.2
2014-Nov-23 18:00N 44°42' W 082°54'1312.7 160 / 211007.2 7.3 5.7
2014-Nov-23 17:00N 44°30' W 082°48'1312.7 160 / 171008.6 7.5 5.6
2014-Nov-23 16:00N 44°18' W 082°42'1918.5 170 / 171011.3 7.0 5.5
2014-Nov-23 15:00N 44°00' W 082°36'1312.8 180 / 151011.6 6.5 5.5
2014-Nov-23 14:00N 43°48' W 082°30'1212.0 180 / 191011.6 6.4 4.6
2014-Nov-23 13:00N 43°36' W 082°30'1212.0 180 / 171012.0 7.3 5.6
2014-Nov-23 12:00N 43°24' W 082°30'1312.8 170 / 131013.0 6.9 5.1
2014-Nov-23 11:00N 43°12' W 082°24'1212.0 210 / 111013.0 6.8 5.5
2014-Nov-23 10:00N 43°00' W 082°24'1312.8 210 / 91013.0 7.8 4.7
2014-Nov-23 09:00N 42°48' W 082°30'6 6.0 200 / 101013.3 7.9 4.7
2014-Nov-23 08:00N 42°42' W 082°30'1312.8 220 / 101014.3 8.5 4.5
2014-Nov-23 07:00N 42°30' W 082°36'1110.7 200 / 101014.2 6.3 4.4
2014-Nov-23 06:00N 42°24' W 082°48'1110.7 200 / 111014.2 5.3 1.9
2014-Nov-23 05:00N 42°18' W 083°00'4 4.4 200 / 61014.2 8.3 0.9
2014-Nov-23 04:00N 42°18' W 083°06'0 0.0 170 / 51014.2 7.7 1.5
2014-Nov-23 03:00N 42°18' W 083°06'4 4.4 220 / 101014.2 9.8 3.9
2014-Nov-23 02:00N 42°18' W 083°12'0 0.0 190 / 71013.8 9.3 5.0
2014-Nov-23 01:00N 42°18' W 083°12'0 0.0 180 / 61014.5 8.9 5.0
2014-Nov-23 00:00N 42°18' W 083°12'0 0.0 190 / 61014.5 8.8 5.3
2014-Nov-22 23:00N 42°18' W 083°12'0 0.0 200 / 61014.8 8.7 5.4
2014-Nov-22 22:00N 42°18' W 083°12'0 0.0 200 / 81014.8 8.6 5.0
2014-Nov-22 21:00N 42°18' W 083°12'0 0.0 180 / 71014.8 8.3 4.4
2014-Nov-22 20:00N 42°18' W 083°12'0 0.0 180 / 61014.8 7.2 4.5
2014-Nov-22 19:00N 42°18' W 083°12'0 0.0 180 / 81016.2 6.6 4.5
2014-Nov-22 18:00N 42°18' W 083°12'0 0.0 170 / 61016.5 5.2 4.4
2014-Nov-22 17:00N 42°18' W 083°12'0 0.0 160 / 61017.5 3.5 4.4
2014-Nov-22 16:00N 42°18' W 083°12'4 4.4 200 / 91018.9 1.7 3.6
2014-Nov-22 15:00N 42°18' W 083°06'0 0.0 110 / 21019.2 0.5 2.8
2014-Nov-22 14:00N 42°18' W 083°06'1110.7 030 / 61019.6 -0.3 1.2
2014-Nov-22 13:00N 42°24' W 082°54'1110.7 240 / 101019.6 -0.6 1.4
2014-Nov-22 12:00N 42°30' W 082°42'1110.7 180 / 231019.9 -0.7 4.1
2014-Nov-22 11:00N 42°36' W 082°30'6 6.0 190 / 161021.8 -0.6 4.5
2014-Nov-22 10:00N 42°42' W 082°30'1212.0 180 / 211021.1 -0.7 4.7
2014-Nov-22 09:00N 42°54' W 082°30'7 7.4 190 / 221022.1 -1.7 4.8
2014-Nov-22 08:00N 43°00' W 082°24'1212.0 180 / 241022.1 -2.2 5.2
2014-Nov-22 07:00N 43°12' W 082°24'1212.0 200 / 281021.5 -2.3 5.6
2014-Nov-22 06:00N 43°24' W 082°24'1312.8 200 / 281022.5 -2.8 5.7
2014-Nov-22 05:00N 43°36' W 082°30'1212.0 200 / 311022.1 -2.9 5.7
2014-Nov-22 04:00N 43°48' W 082°30'1212.0 200 / 301022.8 -3.3 4.8
2014-Nov-22 03:00N 44°00' W 082°30'7 7.4 200 / 261023.8 -2.8 5.5
2014-Nov-22 02:00N 44°06' W 082°36'1312.7 210 / 261024.5 -3.0 5.5
2014-Nov-22 01:00N 44°18' W 082°42'6 6.0 210 / 301024.2 -3.2 5.4
2014-Nov-22 00:00N 44°24' W 082°42'5112.7 200 / 281024.2 -3.2 5.6
2014-Nov-21 20:00N 45°12' W 083°06'7 7.3 220 / 171025.2 -3.3 5.2
2014-Nov-21 19:00N 45°18' W 083°12'1514.7 230 / 141025.5 -3.5 5.3
2014-Nov-21 18:00N 45°30' W 083°24'1010.3 250 / 141025.9 -3.8 5.2
2014-Nov-21 17:00N 45°36' W 083°36'1312.7 250 / 181025.9 -3.8 4.5
2014-Nov-21 16:00N 45°48' W 083°42'1514.6 290 / 141026.5 -4.1 4.2
2014-Nov-21 15:00N 46°00' W 083°54'7 7.3 260 / 121025.5 -5.1 1.9
2014-Nov-21 14:00N 46°06' W 084°00'1010.3 280 / 61025.2 -8.8 1.4
2014-Nov-21 13:00N 46°12' W 084°12'1212.0 340 / 21024.5 -11.7 2.2
2014-Nov-21 12:00N 46°24' W 084°12'7 7.3 250 / 71023.5 -10.4 2.9
2014-Nov-21 11:00N 46°30' W 084°18'4 4.1 110 / 51022.8 -10.2 3.1
2014-Nov-21 10:00N 46°30' W 084°24'0 0.0 080 / 21022.0 -10.6 3.0
2014-Nov-21 09:00N 46°30' W 084°24'8 8.3 250 / 151020.7 -7.9 3.2
2014-Nov-21 08:00N 46°30' W 084°36'1514.6 230 / 191020.0 -8.1 4.9
2014-Nov-21 07:00N 46°42' W 084°48'1010.2 240 / 161019.0 -6.2 5.3
2014-Nov-21 06:00N 46°48' W 085°00'1212.3 300 / 201019.0 -6.3 3.6
2014-Nov-21 05:00N 46°48' W 085°18'1212.3 300 / 181018.3 -6.0 4.4
2014-Nov-21 04:00N 46°48' W 085°36'1212.3 290 / 191017.6 -6.3 4.9
2014-Nov-21 03:00N 46°48' W 085°54'1616.4 300 / 241017.3 -7.1 5.2
2014-Nov-21 02:00N 46°48' W 086°18'1212.3 310 / 171017.6 -7.7 4.7
2014-Nov-21 01:00N 46°48' W 086°36'2512.3 300 / 211017.3 -8.5 4.5
2014-Nov-20 23:00N 46°48' W 087°12'1212.3 280 / 231016.3 -8.9 4.2
2014-Nov-20 22:00N 46°48' W 087°30'1312.7 260 / 251014.6 -9.7 4.3
2014-Nov-20 21:00N 46°36' W 087°24'0 0.0 270 / 231013.5 -8.3 4.1
2014-Nov-20 20:00N 46°36' W 087°24'0 0.0 270 / 121013.5 -8.2 3.1
2014-Nov-20 19:00N 46°36' W 087°24'0 0.0 310 / 201012.2 -8.1 3.3
2014-Nov-20 18:00N 46°36' W 087°24'0 0.0 300 / 211011.2 -8.2 3.3
2014-Nov-20 17:00N 46°36' W 087°24'0 0.0 300 / 161010.8 -7.9 3.4
2014-Nov-20 16:00N 46°36' W 087°24'0 0.0 300 / 191010.5 -7.9 3.4
2014-Nov-20 15:00N 46°36' W 087°24'0 0.0 270 / 181009.8 -8.1 3.3
2014-Nov-20 14:00N 46°36' W 087°24'0 0.0 270 / 141009.1 -8.6 3.3
2014-Nov-20 13:00N 46°36' W 087°24'0 0.0 260 / 141008.1 -9.4 3.4
2014-Nov-20 12:00N 46°36' W 087°24'0 0.0 260 / 131007.8 -9.6 3.3
2014-Nov-20 11:00N 46°36' W 087°24'0 0.0 250 / 121007.1 -9.7 3.4
2014-Nov-20 10:00N 46°36' W 087°24'0 0.0 250 / 141006.4 -9.4 3.5
2014-Nov-20 09:00N 46°36' W 087°24'0 0.0 270 / 121006.4 -8.3 3.6
2014-Nov-20 08:00N 46°36' W 087°24'0 0.0 280 / 151005.8 -7.7 3.5
2014-Nov-20 07:00N 46°36' W 087°24'0 0.0 280 / 171005.1 -7.2 3.5
2014-Nov-20 06:00N 46°36' W 087°24'0 0.0 250 / 141004.7 -7.4 3.5
2014-Nov-20 05:00N 46°36' W 087°24'0 0.0 260 / 131004.7 -7.2 3.5
2014-Nov-20 04:00N 46°36' W 087°24'0 0.0 260 / 151004.1 -6.3 3.5
2014-Nov-20 03:00N 46°36' W 087°24'0 0.0 290 / 161003.7 -6.4 3.1
2014-Nov-20 02:00N 46°36' W 087°24'0 0.0 320 / 41003.4 -5.6 2.8
2014-Nov-20 01:00N 46°36' W 087°24'0 0.0 320 / 31003.0 -6.2 3.0
2014-Nov-20 00:00N 46°36' W 087°24'0 0.0 330 / 41002.4 -5.8 2.8
2014-Nov-19 23:00N 46°36' W 087°24'0 0.0 290 / 21002.4 -5.9 3.2
2014-Nov-19 22:00N 46°36' W 087°24'0 0.0 300 / 21002.4 -5.8 3.2
2014-Nov-19 21:00N 46°36' W 087°24'0 0.0 300 / 21002.4 -6.4 3.1
2014-Nov-19 20:00N 46°36' W 087°24'0 0.0 270 / 71002.0 -6.8 3.2
2014-Nov-19 19:00N 46°36' W 087°24'0 0.0 270 / 51002.4 -7.1 3.0
2014-Nov-19 18:00N 46°36' W 087°24'1212.4 250 / 101003.0 -7.3 3.8
2014-Nov-19 17:00N 46°36' W 087°06'1212.4 210 / 181003.4 -7.9 4.5
2014-Nov-19 16:00N 46°36' W 086°48'1413.7 210 / 201004.7 -8.0 4.3
2014-Nov-19 15:00N 46°42' W 086°30'1212.3 200 / 241005.1 -7.9 4.8
2014-Nov-19 14:00N 46°42' W 086°12'8 8.2 210 / 241005.8 -9.0 4.8
2014-Nov-19 13:00N 46°42' W 086°00'1212.3 200 / 281006.4 -10.3 4.6
2014-Nov-19 12:00N 46°42' W 085°42'1413.7 220 / 281006.4 -9.8 4.9
2014-Nov-19 11:00N 46°48' W 085°24'1212.3 210 / 291006.1 4.8
2014-Nov-19 10:00N 46°48' W 085°06'1010.2 200 / 231007.8 -10.9 3.9
2014-Nov-19 09:00N 46°42' W 084°54'1010.2 230 / 301008.1 -9.9 5.7
2014-Nov-19 08:00N 46°36' W 084°42'1010.2 230 / 351008.1 -8.8 5.9
2014-Nov-19 07:00N 46°30' W 084°30'4 4.1 220 / 261008.5 -10.7 3.9
2014-Nov-19 06:00N 46°30' W 084°24'4 4.1 210 / 71011.2 -11.5 3.9
2014-Nov-19 05:00N 46°30' W 084°18'7 7.3 230 / 121010.3 -10.6 3.6
2014-Nov-19 04:00N 46°24' W 084°12'7 7.3 240 / 221009.9 -9.7 3.7
2014-Nov-19 03:00N 46°18' W 084°06'6 6.0 260 / 191009.6 -8.5 3.4
2014-Nov-19 02:00N 46°12' W 084°06'1514.6 260 / 261008.6 -7.7 2.3
2014-Nov-19 01:00N 46°00' W 083°54'6 6.0 260 / 271007.6 -6.3 2.6
2014-Nov-19 00:00N 45°54' W 083°54'1212.0 300 / 361007.6 -4.0 4.9
2014-Nov-18 23:00N 45°42' W 083°54'1312.7 280 / 381006.6 -3.1 5.6
2014-Nov-18 22:00N 45°30' W 083°48'1414.0 290 / 421004.2 -4.3 5.8
2014-Nov-18 21:00N 45°24' W 083°30'1010.3 270 / 411002.8 -2.8 6.0
2014-Nov-18 20:00N 45°18' W 083°18'1514.7 260 / 421001.5 5.4 2.0-3.7 5.8
2014-Nov-18 19:00N 45°06' W 083°06'6 6.0 270 / 351002.2 -3.9 5.8
2014-Nov-18 18:00N 45°00' W 083°06'1818.0 270 / 411001.8 -3.1 6.0
2014-Nov-18 17:00N 44°42' W 083°06'1312.7 260 / 331002.8 -4.2 6.1
2014-Nov-18 16:00N 44°30' W 083°12'1212.0 250 / 381003.2 -4.2 6.2
2014-Nov-18 15:00N 44°18' W 083°12'1010.5 250 / 411003.5 -5.7 6.3
2014-Nov-18 14:00N 44°12' W 083°00'6510.9 250 / 471001.1 -5.8 6.5
2014-Nov-18 08:00N 43°12' W 082°24'1212.0 240 / 271006.2 -8.5 6.5
2014-Nov-18 07:00N 43°00' W 082°24'1312.8 240 / 151006.9 -8.3 6.1
2014-Nov-18 06:00N 42°48' W 082°30'6 6.0 220 / 141007.2 -8.1 6.2
2014-Nov-18 05:00N 42°42' W 082°30'1312.8 260 / 141007.9 -7.0 6.0
2014-Nov-18 04:00N 42°30' W 082°36'1110.7 250 / 231008.4 -6.4 6.0
2014-Nov-18 03:00N 42°24' W 082°48'1110.7 250 / 241008.7 -6.4 4.0
2014-Nov-18 02:00N 42°18' W 083°00'7 7.5 250 / 201008.7 -6.1 4.1
2014-Nov-18 01:00N 42°12' W 083°06'6 6.0 240 / 181008.7 -5.7 4.3
2014-Nov-18 00:00N 42°06' W 083°06'1212.0 230 / 181009.0 -5.4 4.0
2014-Nov-17 23:00N 41°54' W 083°06'9 8.9 250 / 371007.6 -4.5 4.7
2014-Nov-17 22:00N 41°54' W 082°54'1313.4 240 / 391003.9 -3.2 4.9
2014-Nov-17 21:00N 41°54' W 082°36'1110.8 240 / 511003.2 -2.5 5.9
2014-Nov-17 20:00N 41°48' W 082°24'1110.8 240 / 331001.9 -1.3 6.4
2014-Nov-17 19:00N 41°54' W 082°12'1514.7 250 / 311000.2 0.2 8.6
2014-Nov-17 18:00N 42°00' W 081°54'9 8.9 250 / 32999.5 1.2 8.8
2014-Nov-17 17:00N 42°00' W 081°42'1514.7 260 / 231000.5 0.8 8.8
2014-Nov-17 16:00N 42°06' W 081°24'5213.0 290 / 221002.2 0.6 8.8
2014-Nov-17 12:00N 42°24' W 080°18'613.1 180 / 151005.6 3.1 8.5
2014-Nov-17 11:33N 42°27' W 080°11'5 8.8
2014-Nov-17 11:00N 42°30' W 080°06'1514.6 180 / 131005.9 3.1 8.8
2014-Nov-17 10:00N 42°36' W 079°48'1514.5 160 / 151006.9 2.9 8.8
2014-Nov-17 09:00N 42°42' W 079°30'9 8.8 170 / 181008.0 2.9 8.7
2014-Nov-17 08:00N 42°42' W 079°18'1514.5 170 / 191009.6 2.5 8.5
2014-Nov-17 07:00N 42°48' W 079°00'7 7.4 180 / 211010.7 2.6 7.5
2014-Nov-17 06:00N 42°54' W 078°54'0 0.0 150 / 101012.0 1.6 5.3
2014-Nov-17 05:00N 42°54' W 078°54'0 0.0 200 / 101013.0 2.0 5.0
2014-Nov-17 04:00N 42°54' W 078°54'0 0.0 200 / 61014.0 2.1 5.2
2014-Nov-17 03:00N 42°54' W 078°54'0 0.0 220 / 81014.7 3.1 5.2
2014-Nov-17 02:00N 42°54' W 078°54'0 0.0 230 / 51015.4 2.9 5.1
2014-Nov-17 01:00N 42°54' W 078°54'   220 / 81016.4 2.5 5.0

Dump ship's entire track history